createdAt,value
2022-11-23T00:02:14.270Z,98464.72
2022-11-23T00:04:40.815Z,98467.72
2022-11-23T00:07:07.395Z,98469.63
2022-11-23T00:09:46.427Z,98471.19
2022-11-23T00:12:13.086Z,98467.47
2022-11-23T00:14:58.919Z,98466.16
2022-11-23T00:17:25.462Z,98467.53
2022-11-23T00:19:52.087Z,98472.62
2022-11-23T00:22:18.655Z,98468.56
2022-11-23T00:24:57.412Z,98465.84
2022-11-23T00:27:24.007Z,98467.47
2022-11-23T00:29:50.570Z,98465.56
2022-11-23T00:32:17.126Z,98474.00
2022-11-23T00:35:14.771Z,98460.66
2022-11-23T00:38:01.460Z,98465.44
2022-11-23T00:40:28.035Z,98467.47
2022-11-23T00:42:54.564Z,98467.47
2022-11-23T00:45:21.130Z,98469.19
2022-11-23T00:47:47.672Z,98471.66
2022-11-23T00:50:14.253Z,98457.69
2022-11-23T00:52:40.788Z,98457.38
2022-11-23T00:55:07.923Z,98461.50
2022-11-23T00:57:34.740Z,98464.06
2022-11-23T01:00:01.428Z,98474.75
2022-11-23T01:02:28.008Z,98461.09
2022-11-23T01:04:54.615Z,98459.56
2022-11-23T01:07:36.401Z,98458.28
2022-11-23T01:10:05.788Z,98460.41
2022-11-23T01:12:32.328Z,98466.66
2022-11-23T01:14:58.910Z,98464.47
2022-11-23T01:17:25.476Z,98450.72
2022-11-23T01:20:23.011Z,98439.44
2022-11-23T01:23:09.014Z,98460.66
2022-11-23T01:25:38.958Z,98439.09
2022-11-23T01:28:05.849Z,98437.19
2022-11-23T01:30:33.060Z,98433.72
2022-11-23T01:32:59.822Z,98440.97
2022-11-23T01:35:26.522Z,98431.00
2022-11-23T01:38:08.784Z,98432.66
2022-11-23T01:40:42.027Z,98428.53
2022-11-23T01:43:15.207Z,98433.97
2022-11-23T01:45:43.852Z,98442.81
2022-11-23T01:48:52.959Z,98442.31
2022-11-23T01:51:43.765Z,98441.81
2022-11-23T01:54:17.008Z,98427.44
2022-11-23T01:56:48.439Z,98437.97
2022-11-23T01:59:19.253Z,98417.13
2022-11-23T02:01:46.189Z,98422.66
2022-11-23T02:04:19.411Z,98419.38
2022-11-23T02:09:22.780Z,98412.84
2022-11-23T02:11:49.461Z,98422.94
2022-11-23T02:14:20.521Z,98428.59
2022-11-23T02:21:05.702Z,98429.44
2022-11-23T02:37:42.359Z,98420.94
2022-11-23T02:40:31.624Z,98407.28
2022-11-23T02:42:59.007Z,98416.97
2022-11-23T02:45:44.359Z,98404.56
2022-11-23T02:49:07.743Z,98405.94
2022-11-23T02:51:56.618Z,98422.69
2022-11-23T02:54:23.227Z,98425.44
2022-11-23T02:56:49.951Z,98421.88
2022-11-23T02:59:16.883Z,98438.09
2022-11-23T03:01:43.475Z,98436.09
2022-11-23T03:04:12.918Z,98428.31
2022-11-23T03:07:01.150Z,98418.38
2022-11-23T03:09:29.726Z,98413.00
2022-11-23T03:11:56.474Z,98407.00
2022-11-23T03:14:24.108Z,98407.31
2022-11-23T03:17:14.647Z,98432.16
2022-11-23T03:20:26.505Z,98431.28
2022-11-23T03:22:53.674Z,98424.59
2022-11-23T03:25:21.975Z,98422.34
2022-11-23T03:27:48.825Z,98421.00
2022-11-23T03:30:15.737Z,98411.84
2022-11-23T03:32:42.285Z,98411.84
2022-11-23T03:35:09.158Z,98393.03
2022-11-23T03:37:35.791Z,98410.31
2022-11-23T03:40:03.443Z,98404.38
2022-11-23T03:42:29.985Z,98407.37
2022-11-23T03:44:56.528Z,98408.97
2022-11-23T03:47:23.085Z,98419.53
2022-11-23T03:52:30.345Z,98413.59
2022-11-23T03:54:56.887Z,98406.00
2022-11-23T03:57:23.415Z,98416.81
2022-11-23T03:59:49.945Z,98410.34
2022-11-23T04:02:16.519Z,98409.50
2022-11-23T04:04:43.058Z,98412.22
2022-11-23T04:08:13.259Z,98428.28
2022-11-23T04:10:53.533Z,98419.69
2022-11-23T04:13:20.051Z,98416.41
2022-11-23T04:15:46.771Z,98409.63
2022-11-23T04:18:13.325Z,98413.00
2022-11-23T04:20:58.637Z,98427.47
2022-11-23T04:23:25.238Z,98423.19
2022-11-23T04:25:51.827Z,98421.16
2022-11-23T04:28:18.400Z,98415.69
2022-11-23T04:30:44.944Z,98416.25
2022-11-23T04:33:11.472Z,98416.75
2022-11-23T04:35:56.517Z,98419.72
2022-11-23T04:38:23.059Z,98419.91
2022-11-23T04:40:49.708Z,98428.66
2022-11-23T04:43:16.294Z,98415.69
2022-11-23T04:46:24.415Z,98411.66
2022-11-23T04:49:28.147Z,98416.25
2022-11-23T04:52:04.547Z,98427.28
2022-11-23T04:54:31.150Z,98420.44
2022-11-23T04:56:57.686Z,98416.50
2022-11-23T04:59:25.121Z,98424.38
2022-11-23T05:01:54.597Z,98427.06
2022-11-23T05:04:21.150Z,98435.16
2022-11-23T05:06:47.670Z,98412.50
2022-11-23T05:09:14.346Z,98409.53
2022-11-23T05:11:41.452Z,98420.84
2022-11-23T05:14:28.425Z,98419.53
2022-11-23T05:16:55.170Z,98428.12
2022-11-23T05:19:21.726Z,98415.75
2022-11-23T05:21:48.266Z,98419.78
2022-11-23T05:24:14.821Z,98409.81
2022-11-23T05:26:41.323Z,98409.78
2022-11-23T05:29:07.874Z,98393.56
2022-11-23T05:31:34.527Z,98396.88
2022-11-23T05:34:01.107Z,98410.63
2022-11-23T05:36:30.540Z,98397.09
2022-11-23T05:38:57.123Z,98412.78
2022-11-23T05:41:23.686Z,98399.25
2022-11-23T05:43:50.214Z,98404.06
2022-11-23T05:46:16.777Z,98422.16
2022-11-23T05:49:12.481Z,98420.50
2022-11-23T05:51:39.002Z,98402.72
2022-11-23T05:54:07.938Z,98421.88
2022-11-23T05:56:41.583Z,98405.97
2022-11-23T05:59:08.451Z,98405.97
2022-11-23T06:02:16.731Z,98404.84
2022-11-23T06:05:02.248Z,98433.19
2022-11-23T06:07:31.701Z,98433.41
2022-11-23T06:10:00.918Z,98439.37
2022-11-23T06:12:28.437Z,98432.03
2022-11-23T06:14:55.360Z,98431.56
2022-11-23T06:17:22.264Z,98431.28
2022-11-23T06:19:48.841Z,98424.47
2022-11-23T06:22:15.773Z,98432.03
2022-11-23T06:24:43.303Z,98438.84
2022-11-23T06:27:16.631Z,98438.19
2022-11-23T06:29:46.738Z,98428.88
2022-11-23T06:32:13.745Z,98442.03
2022-11-23T06:34:40.346Z,98438.59
2022-11-23T06:37:06.882Z,98444.56
2022-11-23T06:39:33.762Z,98455.03
2022-11-23T06:42:23.430Z,98447.28
2022-11-23T06:44:47.358Z,98448.97
2022-11-23T06:47:16.898Z,98444.03
2022-11-23T06:49:44.935Z,98442.38
2022-11-23T06:52:11.529Z,98437.97
2022-11-23T06:54:38.072Z,98437.72
2022-11-23T06:57:07.919Z,98442.34
2022-11-23T06:59:34.778Z,98440.47
2022-11-23T07:02:01.511Z,98448.47
2022-11-23T07:07:03.560Z,98466.63
2022-11-23T07:09:30.503Z,98457.19
2022-11-23T07:11:57.327Z,98460.97
2022-11-23T07:14:23.879Z,98467.81
2022-11-23T07:20:59.565Z,98456.75
2022-11-23T07:23:26.642Z,98453.09
2022-11-23T07:25:53.516Z,98452.56
2022-11-23T07:28:20.298Z,98457.59
2022-11-23T07:30:49.539Z,98462.53
2022-11-23T07:33:16.089Z,98468.03
2022-11-23T07:36:02.764Z,98470.06
2022-11-23T07:38:30.216Z,98459.31
2022-11-23T07:40:58.938Z,98457.22
2022-11-23T07:43:26.062Z,98459.03
2022-11-23T07:46:51.679Z,98461.09
2022-11-23T07:49:33.677Z,98477.09
2022-11-23T07:52:00.464Z,98470.31
2022-11-23T07:54:27.024Z,98465.75
2022-11-23T07:59:29.568Z,98473.09
2022-11-23T08:01:58.574Z,98484.87
2022-11-23T08:04:26.773Z,98472.03
2022-11-23T08:06:55.215Z,98483.13
2022-11-23T08:09:21.885Z,98477.34
2022-11-23T08:11:48.589Z,98481.63
2022-11-23T08:14:15.317Z,98486.81
2022-11-23T08:16:41.854Z,98478.78
2022-11-23T08:19:09.150Z,98468.97
2022-11-23T08:21:35.738Z,98485.22
2022-11-23T08:24:02.343Z,98470.63
2022-11-23T08:26:28.874Z,98483.81
2022-11-23T08:28:57.235Z,98484.69
2022-11-23T08:31:23.776Z,98478.56
2022-11-23T08:33:50.344Z,98484.94
2022-11-23T08:36:16.924Z,98479.88
2022-11-23T08:38:43.497Z,98483.59
2022-11-23T08:41:10.137Z,98472.97
2022-11-23T08:43:36.751Z,98479.84
2022-11-23T08:46:09.309Z,98487.06
2022-11-23T08:51:35.599Z,98497.31
2022-11-23T08:54:02.203Z,98488.75
2022-11-23T08:56:28.750Z,98491.66
2022-11-23T08:58:55.510Z,98491.59
2022-11-23T09:01:22.128Z,98498.00
2022-11-23T09:04:36.156Z,98495.75
2022-11-23T09:07:46.428Z,98486.63
2022-11-23T09:10:31.702Z,98501.59
2022-11-23T09:12:59.440Z,98507.75
2022-11-23T09:15:25.978Z,98518.88
2022-11-23T09:17:55.552Z,98517.94
2022-11-23T09:20:22.283Z,98500.94
2022-11-23T09:22:53.880Z,98513.34
2022-11-23T09:33:39.826Z,98512.84
2022-11-23T09:36:06.720Z,98507.78
2022-11-23T09:38:55.017Z,98505.44
2022-11-23T09:41:41.299Z,98508.19
2022-11-23T09:44:42.340Z,98510.00
2022-11-23T09:47:33.480Z,98498.63
2022-11-23T09:50:06.803Z,98495.16
2022-11-23T09:52:39.882Z,98504.00
2022-11-23T09:55:18.268Z,98504.88
2022-11-23T09:57:47.434Z,98501.13
2022-11-23T10:00:23.841Z,98502.16
2022-11-23T10:02:50.480Z,98492.81
2022-11-23T10:05:21.394Z,98492.00
2022-11-23T10:08:04.516Z,98495.72
2022-11-23T10:10:40.123Z,98488.41
2022-11-23T10:13:20.763Z,98498.97
2022-11-23T10:16:10.313Z,98492.94
2022-11-23T10:18:50.672Z,98498.28
2022-11-23T10:21:30.295Z,98493.78
2022-11-23T10:24:03.847Z,98493.53
2022-11-23T10:26:38.870Z,98484.34
2022-11-23T10:29:16.758Z,98490.53
2022-11-23T10:31:52.715Z,98487.56
2022-11-23T10:34:46.523Z,98493.47
2022-11-23T10:37:15.570Z,98492.09
2022-11-23T10:40:01.010Z,98490.06
2022-11-23T10:42:36.475Z,98491.84
2022-11-23T10:45:04.599Z,98492.94
2022-11-23T10:47:41.399Z,98494.78
2022-11-23T10:54:05.405Z,98495.62
2022-11-23T10:56:34.065Z,98490.75
2022-11-23T10:59:01.017Z,98480.25
2022-11-23T11:01:30.230Z,98472.47
2022-11-23T11:04:03.600Z,98472.78
2022-11-23T11:06:34.609Z,98466.34
2022-11-23T11:09:08.391Z,98476.41
2022-11-23T11:11:45.553Z,98466.44
2022-11-23T11:14:23.768Z,98470.84
2022-11-23T11:16:58.417Z,98467.00
2022-11-23T11:19:32.175Z,98468.00
2022-11-23T11:22:01.056Z,98468.78
2022-11-23T11:24:37.943Z,98464.69
2022-11-23T11:27:21.194Z,98471.53
2022-11-23T11:29:48.800Z,98469.94
2022-11-23T11:32:25.143Z,98472.62
2022-11-23T11:35:08.189Z,98476.84
2022-11-23T11:37:39.532Z,98476.28
2022-11-23T11:40:05.996Z,98484.31
2022-11-23T11:42:40.727Z,98484.97
2022-11-23T11:45:16.560Z,98478.03
2022-11-23T11:47:53.432Z,98481.00
2022-11-23T11:50:31.895Z,98477.41
2022-11-23T11:53:05.586Z,98477.94
2022-11-23T11:55:50.803Z,98482.53
2022-11-23T11:58:17.943Z,98484.66
2022-11-23T12:03:44.471Z,98481.41
2022-11-23T12:06:26.904Z,98487.91
2022-11-23T12:09:10.093Z,98487.00
2022-11-23T12:11:37.345Z,98496.19
2022-11-23T12:14:05.822Z,98491.22
2022-11-23T12:17:10.515Z,98488.00
2022-11-23T12:19:51.393Z,98491.59
2022-11-23T12:22:52.836Z,98491.16
2022-11-23T12:25:34.529Z,98487.59
2022-11-23T12:28:16.525Z,98484.66
2022-11-23T12:30:53.687Z,98482.28
2022-11-23T12:36:12.320Z,98485.72
2022-11-23T12:38:55.247Z,98474.50
2022-11-23T12:41:44.937Z,98481.94
2022-11-23T12:46:55.070Z,98475.63
2022-11-23T12:49:44.246Z,98481.81
2022-11-23T12:52:13.459Z,98483.34
2022-11-23T12:55:19.810Z,98492.19
2022-11-23T12:58:15.675Z,98484.41
2022-11-23T13:12:55.270Z,98492.87
2022-11-23T13:16:03.702Z,98493.81
2022-11-23T13:19:40.132Z,98495.72
2022-11-23T13:23:06.541Z,98501.31
2022-11-23T13:28:30.592Z,98500.31
2022-11-23T13:31:23.829Z,98506.59
2022-11-23T13:33:53.277Z,98502.69
2022-11-23T13:37:10.575Z,98512.34
2022-11-23T13:39:43.925Z,98504.56
2022-11-23T13:42:11.462Z,98510.31
2022-11-23T13:44:38.319Z,98504.16
2022-11-23T13:50:09.073Z,98507.94
2022-11-23T13:52:36.888Z,98508.16
2022-11-23T13:55:10.529Z,98503.16
2022-11-23T13:57:39.217Z,98509.38
2022-11-23T14:00:43.201Z,98506.81
2022-11-23T14:03:47.501Z,98505.78
2022-11-23T14:06:35.477Z,98508.34
2022-11-23T14:09:18.084Z,98516.38
2022-11-23T14:12:06.795Z,98509.59
2022-11-23T14:14:54.006Z,98514.53
2022-11-23T14:17:39.023Z,98516.44
2022-11-23T14:20:50.500Z,98520.44
2022-11-23T14:23:44.971Z,98525.69
2022-11-23T14:26:27.397Z,98521.25
2022-11-23T14:28:56.999Z,98523.91
2022-11-23T14:31:33.007Z,98526.66
2022-11-23T14:34:11.054Z,98526.31
2022-11-23T14:36:54.118Z,98522.75
2022-11-23T14:39:23.683Z,98525.53
2022-11-23T14:41:54.896Z,98533.81
2022-11-23T14:44:33.050Z,98533.66
2022-11-23T14:47:09.266Z,98528.31
2022-11-23T14:49:37.098Z,98535.09
2022-11-23T14:52:05.762Z,98531.34
2022-11-23T14:54:32.935Z,98536.13
2022-11-23T14:57:03.930Z,98539.00
2022-11-23T14:59:37.724Z,98539.09
2022-11-23T15:02:22.103Z,98538.97
2022-11-23T15:05:09.117Z,98543.50
2022-11-23T15:07:44.701Z,98531.72
2022-11-23T15:10:40.085Z,98541.00
2022-11-23T15:13:21.169Z,98536.44
2022-11-23T15:15:52.188Z,98546.75
2022-11-23T15:18:35.463Z,98548.16
2022-11-23T15:21:03.561Z,98556.31
2022-11-23T15:23:35.806Z,98554.41
2022-11-23T15:26:28.614Z,98559.31
2022-11-23T15:29:01.643Z,98559.03
2022-11-23T15:31:36.632Z,98561.00
2022-11-23T15:34:17.066Z,98553.13
2022-11-23T15:39:22.061Z,98565.63
2022-11-23T15:41:49.630Z,98560.97
2022-11-23T15:44:25.331Z,98555.34
2022-11-23T15:46:58.986Z,98560.59
2022-11-23T15:49:25.898Z,98560.72
2022-11-23T15:51:59.548Z,98573.69
2022-11-23T15:54:46.631Z,98576.75
2022-11-23T15:57:18.957Z,98574.78
2022-11-23T15:59:55.947Z,98583.06
2022-11-23T16:02:31.122Z,98589.53
2022-11-23T16:46:26.935Z,98613.25
2022-11-23T16:49:10.574Z,98608.38
2022-11-23T16:51:37.115Z,98613.72
2022-11-23T16:54:24.556Z,98612.56
2022-11-23T16:56:51.945Z,98609.19
2022-11-23T16:59:43.423Z,98609.16
2022-11-23T17:07:33.978Z,98611.78
2022-11-23T17:36:47.540Z,98623.00
2022-11-23T17:50:54.895Z,98622.88
2022-11-23T17:53:25.353Z,98626.09
2022-11-23T17:55:54.566Z,98624.03
2022-11-23T18:03:37.929Z,98630.41
2022-11-23T18:08:40.195Z,98629.59
2022-11-23T18:11:07.472Z,98635.47
2022-11-23T18:13:53.450Z,98634.53
2022-11-23T18:18:55.930Z,98635.56
2022-11-23T18:21:48.201Z,98633.44
2022-11-23T18:32:13.925Z,98637.81
2022-11-23T18:34:43.558Z,98636.94
2022-11-23T18:37:10.712Z,98634.66
2022-11-23T18:39:38.310Z,98637.97
2022-11-23T18:42:11.788Z,98642.56
2022-11-23T18:44:42.416Z,98643.06
2022-11-23T18:47:12.922Z,98629.78
2022-11-23T18:49:39.496Z,98640.25
2022-11-23T19:14:39.711Z,98650.88
2022-11-23T19:17:14.242Z,98650.88
2022-11-23T19:19:41.072Z,98651.53
2022-11-23T19:22:14.793Z,98654.63
2022-11-23T19:24:44.561Z,98661.84
2022-11-23T19:27:20.180Z,98653.59
2022-11-23T19:29:46.792Z,98654.34
2022-11-23T19:32:13.393Z,98666.09
2022-11-23T19:34:40.166Z,98667.13
2022-11-23T19:37:07.641Z,98664.69
2022-11-23T19:39:34.506Z,98662.97
2022-11-23T19:42:01.788Z,98667.63
2022-11-23T19:44:28.351Z,98668.19
2022-11-23T19:46:54.915Z,98673.06
2022-11-23T19:49:24.320Z,98672.56
2022-11-23T19:51:53.485Z,98674.87
2022-11-23T19:54:22.376Z,98680.47
2022-11-23T19:56:52.333Z,98682.81
2022-11-23T19:59:18.921Z,98681.22
2022-11-23T20:01:45.542Z,98676.88
2022-11-23T20:04:12.123Z,98680.09
2022-11-23T20:06:42.417Z,98683.63
2022-11-23T20:09:21.059Z,98687.63
2022-11-23T20:14:32.104Z,98682.19
2022-11-23T20:16:59.520Z,98687.09
2022-11-23T20:19:26.249Z,98689.44
2022-11-23T20:22:30.594Z,98684.47
2022-11-23T20:28:54.662Z,98700.19
2022-11-23T20:31:22.259Z,98702.75
2022-11-23T20:33:55.207Z,98700.59
2022-11-23T20:36:27.376Z,98708.25
2022-11-23T20:39:16.215Z,98711.19
2022-11-23T22:13:36.836Z,98759.09
2022-11-23T22:16:14.509Z,98758.22
2022-11-23T22:18:43.537Z,98761.91
2022-11-23T22:21:32.444Z,98760.81
2022-11-23T22:23:59.633Z,98760.75
2022-11-23T22:26:41.302Z,98764.38
2022-11-23T22:29:17.338Z,98758.84
2022-11-23T22:39:50.146Z,98766.00
2022-11-23T22:42:17.406Z,98764.75
2022-11-23T22:44:44.021Z,98768.59
2022-11-23T22:47:10.915Z,98772.28
2022-11-23T22:49:38.200Z,98774.59
2022-11-23T22:52:29.882Z,98773.78
2022-11-23T22:54:56.442Z,98779.06
2022-11-23T22:57:22.986Z,98777.78
2022-11-23T22:59:49.521Z,98770.81
2022-11-23T23:06:30.946Z,98783.00
2022-11-23T23:57:39.981Z,98818.94
